createdAt,value
2022-10-25T00:01:55.833Z,1.00
2022-10-25T00:04:23.493Z,0.77
2022-10-25T00:06:50.266Z,0.70
2022-10-25T00:09:17.173Z,1.00
2022-10-25T00:11:43.821Z,0.90
2022-10-25T00:14:15.865Z,0.80
2022-10-25T00:16:42.554Z,0.80
2022-10-25T00:19:11.785Z,0.90
2022-10-25T00:21:38.504Z,0.70
2022-10-25T00:24:05.701Z,0.73
2022-10-25T00:26:32.464Z,0.70
2022-10-25T00:29:00.529Z,0.70
2022-10-25T00:31:27.443Z,0.90
2022-10-25T00:33:54.146Z,0.83
2022-10-25T00:36:23.820Z,0.80
2022-10-25T00:38:51.100Z,0.70
2022-10-25T00:41:22.037Z,0.87
2022-10-25T00:43:54.910Z,0.73
2022-10-25T00:46:27.661Z,1.10
2022-10-25T00:49:09.097Z,0.80
2022-10-25T00:51:41.886Z,0.90
2022-10-25T00:54:12.798Z,0.70
2022-10-25T00:56:42.601Z,0.93
2022-10-25T00:59:13.166Z,0.80
2022-10-25T01:01:40.119Z,0.80
2022-10-25T01:04:13.197Z,0.80
2022-10-25T01:06:42.545Z,0.93
2022-10-25T01:09:11.104Z,0.90
2022-10-25T01:11:37.997Z,0.70
2022-10-25T01:14:11.185Z,0.80
2022-10-25T01:16:44.125Z,0.63
2022-10-25T01:19:13.438Z,0.70
2022-10-25T01:21:47.933Z,0.90
2022-10-25T01:24:14.510Z,0.73
2022-10-25T01:27:06.919Z,0.60
2022-10-25T01:30:00.584Z,0.70
2022-10-25T01:32:53.890Z,0.80
2022-10-25T01:35:51.818Z,0.80
2022-10-25T01:38:24.589Z,0.60
2022-10-25T01:41:29.817Z,0.70
2022-10-25T01:44:11.959Z,0.60
2022-10-25T01:46:46.236Z,0.90
2022-10-25T01:49:19.826Z,1.00
2022-10-25T01:51:46.446Z,0.90
2022-10-25T01:54:22.771Z,0.63
2022-10-25T01:57:21.783Z,0.83
2022-10-25T02:00:09.692Z,0.80
2022-10-25T02:03:04.927Z,0.87
2022-10-25T02:05:41.713Z,1.10
2022-10-25T02:08:22.219Z,0.53
2022-10-25T02:11:01.945Z,0.90
2022-10-25T02:13:41.433Z,0.80
2022-10-25T02:16:16.353Z,0.70
2022-10-25T02:18:46.541Z,0.90
2022-10-25T02:21:15.931Z,0.67
2022-10-25T02:23:44.197Z,0.70
2022-10-25T02:26:11.456Z,0.90
2022-10-25T02:28:40.662Z,0.80
2022-10-25T02:31:09.997Z,0.70
2022-10-25T02:33:37.531Z,0.70
2022-10-25T02:36:10.346Z,0.80
2022-10-25T02:38:38.048Z,0.90
2022-10-25T02:41:05.869Z,0.80
2022-10-25T02:43:32.835Z,0.80
2022-10-25T02:46:00.000Z,0.90
2022-10-25T02:48:26.796Z,0.70
2022-10-25T02:50:53.571Z,0.83
2022-10-25T02:53:20.256Z,0.50
2022-10-25T02:55:47.178Z,0.60
2022-10-25T02:58:13.797Z,0.97
2022-10-25T03:00:41.547Z,0.70
2022-10-25T03:03:08.199Z,0.70
2022-10-25T03:05:35.105Z,1.43
2022-10-25T03:08:01.708Z,0.60
2022-10-25T03:10:28.513Z,0.90
2022-10-25T03:12:55.128Z,0.80
2022-10-25T03:15:21.854Z,0.60
2022-10-25T03:17:48.710Z,0.90
2022-10-25T03:20:15.845Z,0.90
2022-10-25T03:22:42.462Z,0.80
2022-10-25T03:27:41.234Z,1.43
2022-10-25T03:30:08.305Z,0.90
2022-10-25T03:32:35.101Z,0.80
2022-10-25T03:35:01.725Z,0.90
2022-10-25T03:37:28.452Z,0.97
2022-10-25T03:39:55.150Z,0.77
2022-10-25T03:42:21.924Z,0.87
2022-10-25T03:44:48.974Z,0.90
2022-10-25T03:47:16.424Z,0.80
2022-10-25T03:49:43.097Z,1.00
2022-10-25T03:52:10.077Z,0.70
2022-10-25T03:54:37.552Z,0.80
2022-10-25T03:57:05.122Z,0.60
2022-10-25T03:59:31.811Z,1.10
2022-10-25T04:01:58.618Z,0.70
2022-10-25T04:04:25.325Z,1.10
2022-10-25T04:06:52.266Z,0.80
2022-10-25T04:09:18.987Z,0.80
2022-10-25T04:11:45.585Z,0.80
2022-10-25T04:14:13.118Z,0.80
2022-10-25T04:16:39.845Z,1.10
2022-10-25T04:19:06.757Z,1.10
2022-10-25T04:21:33.441Z,0.67
2022-10-25T04:24:03.434Z,1.00
2022-10-25T04:26:31.576Z,0.80
2022-10-25T04:28:58.381Z,1.07
2022-10-25T04:31:25.161Z,1.00
2022-10-25T04:33:53.089Z,0.73
2022-10-25T04:36:20.661Z,0.90
2022-10-25T04:38:51.012Z,0.77
2022-10-25T04:41:18.801Z,0.83
2022-10-25T04:43:46.510Z,0.90
2022-10-25T04:46:13.966Z,0.70
2022-10-25T04:48:42.496Z,0.77
2022-10-25T04:51:10.936Z,0.90
2022-10-25T04:53:37.537Z,1.43
2022-10-25T04:56:10.204Z,1.33
2022-10-25T04:58:37.398Z,0.63
2022-10-25T05:01:12.905Z,0.87
2022-10-25T05:03:40.926Z,0.80
2022-10-25T05:06:09.666Z,0.70
2022-10-25T05:08:39.890Z,0.90
2022-10-25T05:11:07.753Z,0.80
2022-10-25T05:13:36.318Z,1.60
2022-10-25T05:16:04.160Z,1.20
2022-10-25T05:18:31.973Z,1.57
2022-10-25T05:21:01.037Z,0.90
2022-10-25T05:23:28.509Z,0.70
2022-10-25T05:26:19.733Z,0.80
2022-10-25T05:28:48.242Z,1.10
2022-10-25T05:31:27.334Z,1.10
2022-10-25T05:33:57.473Z,1.00
2022-10-25T05:36:25.313Z,0.70
2022-10-25T05:38:52.371Z,0.80
2022-10-25T05:41:19.613Z,0.73
2022-10-25T05:43:46.713Z,1.30
2022-10-25T05:46:22.803Z,0.80
2022-10-25T05:48:50.865Z,0.80
2022-10-25T05:51:34.725Z,1.17
2022-10-25T05:54:09.977Z,0.80
2022-10-25T05:56:37.417Z,0.70
2022-10-25T05:59:09.400Z,0.90
2022-10-25T06:01:38.546Z,1.00
2022-10-25T06:04:05.505Z,0.80
2022-10-25T06:06:32.203Z,0.80
2022-10-25T06:09:00.766Z,0.67
2022-10-25T06:11:28.290Z,0.70
2022-10-25T06:13:55.368Z,0.73
2022-10-25T06:16:23.483Z,1.10
2022-10-25T06:18:50.681Z,1.10
2022-10-25T06:21:20.366Z,0.80
2022-10-25T06:23:48.005Z,0.77
2022-10-25T06:26:20.517Z,1.07
2022-10-25T06:28:47.360Z,0.80
2022-10-25T06:31:18.744Z,1.27
2022-10-25T06:33:46.014Z,1.10
2022-10-25T06:36:18.240Z,0.70
2022-10-25T06:38:46.693Z,0.90
2022-10-25T06:41:18.429Z,1.00
2022-10-25T06:43:45.485Z,1.73
2022-10-25T06:46:21.864Z,1.00
2022-10-25T06:48:49.701Z,1.03
2022-10-25T06:51:16.713Z,1.10
2022-10-25T06:53:43.801Z,0.80
2022-10-25T06:56:14.642Z,1.10
2022-10-25T06:58:42.573Z,1.00
2022-10-25T07:01:14.822Z,0.80
2022-10-25T07:03:42.885Z,0.80
2022-10-25T07:06:14.754Z,1.00
2022-10-25T07:08:43.620Z,0.97
2022-10-25T07:11:18.726Z,0.93
2022-10-25T07:13:46.136Z,1.00
2022-10-25T07:16:18.248Z,1.07
2022-10-25T07:18:45.577Z,0.90
2022-10-25T07:21:17.828Z,1.00
2022-10-25T07:23:45.138Z,0.70
2022-10-25T07:26:20.682Z,0.87
2022-10-25T07:28:48.644Z,1.13
2022-10-25T07:31:24.116Z,1.00
2022-10-25T07:33:53.118Z,0.80
2022-10-25T07:36:20.701Z,1.10
2022-10-25T07:38:47.334Z,0.83
2022-10-25T07:41:14.230Z,0.80
2022-10-25T07:43:41.173Z,0.90
2022-10-25T07:46:08.799Z,0.83
2022-10-25T07:48:36.109Z,1.30
2022-10-25T07:51:08.105Z,0.90
2022-10-25T07:53:35.036Z,1.00
2022-10-25T07:56:02.209Z,1.03
2022-10-25T07:58:28.893Z,0.90
2022-10-25T08:01:03.770Z,0.70
2022-10-25T08:03:31.250Z,1.00
2022-10-25T08:05:58.086Z,0.70
2022-10-25T08:08:25.410Z,0.73
2022-10-25T08:10:52.621Z,1.20
2022-10-25T08:13:19.978Z,1.00
2022-10-25T08:15:51.170Z,0.90
2022-10-25T08:18:18.184Z,0.80
2022-10-25T08:21:02.762Z,1.00
2022-10-25T08:23:31.573Z,0.90
2022-10-25T08:25:58.718Z,0.70
2022-10-25T08:28:25.683Z,0.70
2022-10-25T08:30:55.187Z,0.63
2022-10-25T08:33:22.338Z,0.90
2022-10-25T08:35:48.968Z,0.80
2022-10-25T08:38:15.842Z,0.90
2022-10-25T08:41:03.391Z,1.17
2022-10-25T08:43:55.498Z,1.00
2022-10-25T08:46:27.503Z,0.70
2022-10-25T08:49:10.842Z,0.97
2022-10-25T08:51:40.274Z,0.80
2022-10-25T08:54:22.415Z,0.67
2022-10-25T08:57:10.537Z,0.87
2022-10-25T08:59:41.129Z,0.60
2022-10-25T09:02:21.996Z,0.67
2022-10-25T09:04:49.100Z,1.00
2022-10-25T09:07:44.864Z,0.80
2022-10-25T09:10:53.513Z,1.67
2022-10-25T09:16:12.622Z,1.00
2022-10-25T09:18:59.771Z,0.80
2022-10-25T09:21:26.363Z,0.70
2022-10-25T09:24:05.297Z,1.17
2022-10-25T09:26:41.137Z,0.87
2022-10-25T09:29:18.782Z,0.77
2022-10-25T09:31:52.338Z,0.60
2022-10-25T09:34:21.625Z,0.80
2022-10-25T09:36:52.993Z,0.93
2022-10-25T09:39:34.625Z,0.53
2022-10-25T09:42:03.257Z,0.60
2022-10-25T09:44:36.178Z,0.90
2022-10-25T09:47:32.647Z,0.80
2022-10-25T09:50:10.201Z,0.80
2022-10-25T09:52:36.785Z,0.77
2022-10-25T09:55:48.742Z,0.70
2022-10-25T09:58:22.664Z,0.83
2022-10-25T10:00:51.534Z,0.80
2022-10-25T10:03:19.331Z,0.60
2022-10-25T10:06:01.410Z,1.03
2022-10-25T10:08:31.714Z,0.80
2022-10-25T10:10:59.366Z,1.00
2022-10-25T10:13:33.920Z,1.00
2022-10-25T10:16:15.847Z,0.70
2022-10-25T10:18:43.693Z,0.50
2022-10-25T10:21:10.386Z,0.60
2022-10-25T10:23:43.228Z,0.70
2022-10-25T10:26:19.008Z,0.60
2022-10-25T10:29:04.189Z,0.77
2022-10-25T10:31:42.430Z,0.80
2022-10-25T10:34:26.431Z,0.70
2022-10-25T10:37:16.217Z,0.70
2022-10-25T10:39:58.710Z,0.70
2022-10-25T10:42:37.454Z,0.60
2022-10-25T10:45:10.434Z,0.67
2022-10-25T10:47:49.417Z,1.00
2022-10-25T10:50:22.298Z,0.70
2022-10-25T10:53:07.680Z,0.90
2022-10-25T10:55:47.894Z,0.73
2022-10-25T10:58:25.690Z,0.60
2022-10-25T11:01:03.287Z,0.90
2022-10-25T11:03:48.933Z,0.73
2022-10-25T11:06:30.750Z,0.67
2022-10-25T11:09:14.116Z,1.10
2022-10-25T11:11:40.927Z,1.03
2022-10-25T11:14:15.941Z,0.73
2022-10-25T11:17:06.704Z,0.70
2022-10-25T11:20:05.767Z,0.90
2022-10-25T11:22:55.632Z,0.70
2022-10-25T11:25:41.474Z,0.63
2022-10-25T11:29:03.160Z,0.60
2022-10-25T11:31:41.682Z,0.57
2022-10-25T11:34:43.560Z,0.70
2022-10-25T11:37:26.665Z,0.77
2022-10-25T11:40:18.802Z,1.60
2022-10-25T11:43:22.970Z,0.50
2022-10-25T11:46:01.450Z,0.80
2022-10-25T11:48:37.092Z,0.70
2022-10-25T11:51:21.268Z,0.60
2022-10-25T11:54:20.390Z,0.77
2022-10-25T11:57:37.193Z,0.40
2022-10-25T12:00:22.533Z,0.60
2022-10-25T12:03:19.737Z,0.60
2022-10-25T12:06:12.299Z,0.57
2022-10-25T12:09:06.921Z,0.53
2022-10-25T12:11:46.371Z,0.50
2022-10-25T12:14:19.942Z,0.57
2022-10-25T12:16:47.792Z,0.43
2022-10-25T12:19:29.131Z,0.50
2022-10-25T12:22:07.876Z,0.43
2022-10-25T12:24:45.184Z,0.50
2022-10-25T12:27:16.389Z,0.70
2022-10-25T12:29:49.629Z,0.40
2022-10-25T12:32:23.160Z,0.50
2022-10-25T12:34:55.259Z,0.50
2022-10-25T12:37:39.803Z,0.40
2022-10-25T12:40:14.718Z,0.43
2022-10-25T12:42:49.312Z,0.50
2022-10-25T12:45:41.202Z,0.70
2022-10-25T12:48:32.809Z,0.40
2022-10-25T12:51:19.785Z,0.67
2022-10-25T12:54:01.526Z,0.50
2022-10-25T12:56:54.976Z,0.30
2022-10-25T12:59:43.177Z,0.40
2022-10-25T13:02:22.751Z,0.53
2022-10-25T13:05:08.144Z,0.40
2022-10-25T13:07:37.109Z,0.30
2022-10-25T13:10:17.857Z,0.70
2022-10-25T13:13:05.981Z,0.60
2022-10-25T13:15:50.107Z,0.50
2022-10-25T13:18:39.246Z,0.50
2022-10-25T13:21:12.406Z,0.40
2022-10-25T13:23:56.018Z,0.50
2022-10-25T13:26:27.200Z,0.50
2022-10-25T13:29:04.058Z,0.43
2022-10-25T13:31:33.942Z,0.53
2022-10-25T13:34:13.102Z,0.47
2022-10-25T13:36:45.578Z,0.43
2022-10-25T13:39:18.821Z,1.00
2022-10-25T13:41:45.838Z,0.50
2022-10-25T13:44:20.115Z,0.70
2022-10-25T13:46:48.015Z,0.50
2022-10-25T13:49:23.868Z,0.60
2022-10-25T13:51:54.923Z,0.50
2022-10-25T13:54:22.584Z,0.40
2022-10-25T13:56:53.741Z,0.70
2022-10-25T13:59:37.063Z,0.47
2022-10-25T14:02:22.207Z,0.50
2022-10-25T14:04:48.977Z,0.60
2022-10-25T14:07:43.412Z,1.00
2022-10-25T14:12:53.643Z,0.33
2022-10-25T14:15:38.279Z,0.60
2022-10-25T14:18:16.696Z,0.40
2022-10-25T14:20:47.017Z,0.93
2022-10-25T14:23:26.569Z,0.40
2022-10-25T14:25:58.722Z,0.43
2022-10-25T14:28:30.550Z,0.50
2022-10-25T14:30:59.857Z,0.70
2022-10-25T14:33:35.424Z,0.40
2022-10-25T14:36:31.249Z,0.43
2022-10-25T14:39:16.041Z,0.50
2022-10-25T14:41:54.036Z,0.47
2022-10-25T14:44:28.057Z,0.30
2022-10-25T14:46:56.283Z,0.38
2022-10-25T14:49:24.356Z,0.77
2022-10-25T14:51:54.448Z,0.32
2022-10-25T14:54:30.675Z,0.50
2022-10-25T14:57:06.440Z,0.43
2022-10-25T14:59:55.339Z,0.30
2022-10-25T15:02:29.188Z,0.32
2022-10-25T15:05:01.013Z,0.75
2022-10-25T15:07:31.986Z,0.50
2022-10-25T15:10:01.340Z,0.45
2022-10-25T15:12:32.072Z,0.63
2022-10-25T15:15:20.022Z,0.65
2022-10-25T15:17:51.809Z,0.80
2022-10-25T15:20:19.154Z,0.60
2022-10-25T15:22:48.157Z,0.60
2022-10-25T15:25:24.309Z,0.43
2022-10-25T15:27:52.545Z,0.60
2022-10-25T15:30:39.508Z,0.50
2022-10-25T15:33:12.444Z,0.63
2022-10-25T15:35:47.682Z,1.13
2022-10-25T15:38:14.560Z,0.60
2022-10-25T15:40:41.928Z,0.80
2022-10-25T15:43:08.732Z,0.67
2022-10-25T15:45:37.674Z,0.40
2022-10-25T15:48:06.251Z,1.20
2022-10-25T15:50:33.555Z,0.60
2022-10-25T15:53:01.054Z,1.00
2022-10-25T15:55:28.653Z,0.60
2022-10-25T15:57:55.460Z,0.60
2022-10-25T16:00:27.966Z,0.80
2022-10-25T16:02:55.792Z,0.90
2022-10-25T16:05:25.767Z,1.17
2022-10-25T16:07:52.903Z,0.93
2022-10-25T16:10:21.560Z,1.50
2022-10-25T16:13:09.504Z,1.40
2022-10-25T16:15:36.217Z,1.47
2022-10-25T16:18:03.226Z,1.40
2022-10-25T16:20:31.273Z,2.57
2022-10-25T16:22:58.447Z,2.20
2022-10-25T16:25:30.432Z,2.43
2022-10-25T16:28:00.249Z,1.90
2022-10-25T16:30:33.752Z,2.13
2022-10-25T16:33:00.698Z,2.07
2022-10-25T16:35:27.360Z,2.10
2022-10-25T16:37:54.411Z,2.40
2022-10-25T16:40:22.484Z,2.80
2022-10-25T16:42:49.541Z,3.30
2022-10-25T16:45:28.905Z,4.70
2022-10-25T16:47:56.907Z,3.93
2022-10-25T16:50:25.693Z,3.17
2022-10-25T16:52:53.782Z,3.50
2022-10-25T16:55:21.189Z,3.30
2022-10-25T17:00:20.014Z,2.20
2022-10-25T17:02:48.298Z,2.10
2022-10-25T17:05:20.133Z,2.40
2022-10-25T17:07:46.991Z,2.43
2022-10-25T17:10:18.511Z,2.77
2022-10-25T17:12:53.710Z,2.70
2022-10-25T17:15:21.533Z,2.30
2022-10-25T17:17:48.582Z,1.97
2022-10-25T17:20:17.035Z,2.00
2022-10-25T17:22:43.992Z,2.00
2022-10-25T17:25:11.489Z,1.73
2022-10-25T17:27:41.610Z,1.30
2022-10-25T17:30:10.353Z,2.00
2022-10-25T17:32:38.006Z,1.60
2022-10-25T17:35:05.739Z,2.17
2022-10-25T17:37:32.876Z,1.63
2022-10-25T17:39:59.595Z,1.87
2022-10-25T17:42:28.332Z,4.30
2022-10-25T17:44:55.325Z,5.17
2022-10-25T17:47:22.085Z,7.47
2022-10-25T17:49:48.893Z,5.40
2022-10-25T17:52:15.525Z,4.10
2022-10-25T17:54:43.054Z,4.97
2022-10-25T17:57:09.706Z,4.80
2022-10-25T17:59:36.517Z,3.13
2022-10-25T18:02:03.256Z,2.83
2022-10-25T18:04:40.766Z,2.17
2022-10-25T18:07:17.057Z,2.43
2022-10-25T18:09:44.398Z,2.00
2022-10-25T18:12:11.527Z,2.87
2022-10-25T18:14:38.413Z,2.30
2022-10-25T18:17:06.492Z,2.87
2022-10-25T18:19:33.205Z,4.90
2022-10-25T18:22:00.674Z,5.77
2022-10-25T18:24:29.083Z,6.47
2022-10-25T18:26:56.136Z,6.10
2022-10-25T18:29:23.427Z,6.03
2022-10-25T18:31:50.190Z,4.90
2022-10-25T18:34:17.996Z,3.80
2022-10-25T18:36:44.719Z,2.73
2022-10-25T18:39:11.338Z,2.90
2022-10-25T18:41:40.747Z,2.30
2022-10-25T18:44:14.144Z,2.10
2022-10-25T18:46:42.532Z,1.63
2022-10-25T18:49:14.625Z,1.90
2022-10-25T18:51:41.390Z,1.80
2022-10-25T18:54:10.296Z,2.43
2022-10-25T18:56:37.222Z,2.97
2022-10-25T18:59:04.255Z,3.13
2022-10-25T19:01:33.909Z,2.63
2022-10-25T19:04:02.506Z,2.90
2022-10-25T19:06:29.724Z,3.10
2022-10-25T19:08:56.906Z,3.07
2022-10-25T19:11:23.782Z,3.77
2022-10-25T19:13:55.214Z,3.60
2022-10-25T19:16:23.309Z,2.73
2022-10-25T19:18:50.247Z,3.93
2022-10-25T19:21:18.599Z,2.77
2022-10-25T19:23:46.742Z,2.83
2022-10-25T19:26:21.781Z,2.13
2022-10-25T19:28:56.095Z,2.10
2022-10-25T19:31:23.505Z,1.93
2022-10-25T19:33:51.188Z,2.53
2022-10-25T19:36:18.711Z,2.70
2022-10-25T19:38:48.188Z,2.40
2022-10-25T19:41:17.844Z,2.43
2022-10-25T19:43:45.203Z,2.50
2022-10-25T19:46:13.018Z,1.97
2022-10-25T19:48:40.216Z,2.87
2022-10-25T19:51:12.042Z,3.43
2022-10-25T19:53:39.025Z,3.33
2022-10-25T19:56:10.421Z,3.10
2022-10-25T19:58:37.484Z,2.73
2022-10-25T20:01:27.194Z,2.83
2022-10-25T20:03:55.329Z,2.30
2022-10-25T20:06:25.367Z,2.60
2022-10-25T20:08:53.013Z,2.10
2022-10-25T20:11:20.229Z,2.67
2022-10-25T20:13:47.004Z,3.33
2022-10-25T20:16:15.037Z,3.17
2022-10-25T20:18:42.502Z,2.70
2022-10-25T20:21:17.783Z,2.57
2022-10-25T20:23:49.207Z,2.20
2022-10-25T20:26:22.362Z,1.80
2022-10-25T20:28:51.381Z,1.80
2022-10-25T20:31:19.944Z,1.50
2022-10-25T20:33:46.670Z,1.40
2022-10-25T20:36:14.012Z,1.53
2022-10-25T20:38:41.426Z,1.63
2022-10-25T20:41:11.097Z,1.73
2022-10-25T20:43:39.327Z,2.10
2022-10-25T20:46:07.764Z,1.80
2022-10-25T20:48:34.873Z,1.83
2022-10-25T20:51:04.259Z,1.60
2022-10-25T20:53:34.283Z,1.40
2022-10-25T20:56:01.084Z,1.97
2022-10-25T20:58:27.918Z,2.07
2022-10-25T21:00:57.463Z,1.90
2022-10-25T21:03:26.073Z,1.80
2022-10-25T21:05:57.205Z,1.80
2022-10-25T21:08:24.718Z,2.10
2022-10-25T21:10:56.661Z,1.80
2022-10-25T21:13:24.406Z,2.30
2022-10-25T21:15:51.982Z,2.40
2022-10-25T21:18:19.327Z,2.17
2022-10-25T21:20:47.937Z,2.00
2022-10-25T21:23:14.833Z,2.20
2022-10-25T21:25:41.562Z,1.87
2022-10-25T21:28:08.203Z,2.40
2022-10-25T21:30:34.796Z,2.00
2022-10-25T21:33:03.221Z,2.00
2022-10-25T21:35:32.438Z,2.43
2022-10-25T21:37:59.453Z,2.97
2022-10-25T21:40:26.117Z,2.00
2022-10-25T21:42:53.132Z,2.27
2022-10-25T21:45:19.763Z,2.00
2022-10-25T21:47:46.609Z,2.00
2022-10-25T21:50:15.155Z,2.00
2022-10-25T21:52:41.781Z,2.00
2022-10-25T21:55:09.283Z,2.17
2022-10-25T21:57:36.245Z,2.17
2022-10-25T22:00:04.299Z,2.13
2022-10-25T22:02:39.658Z,2.10
2022-10-25T22:05:06.864Z,2.30
2022-10-25T22:07:33.497Z,3.20
2022-10-25T22:10:00.240Z,2.20
2022-10-25T22:12:27.201Z,2.23
2022-10-25T22:14:54.178Z,2.50
2022-10-25T22:17:21.055Z,3.03
2022-10-25T22:19:47.669Z,2.67
2022-10-25T22:22:14.521Z,2.57
2022-10-25T22:24:41.117Z,2.80
2022-10-25T22:27:07.895Z,2.43
2022-10-25T22:29:34.484Z,2.30
2022-10-25T22:32:01.690Z,2.10
2022-10-25T22:34:28.672Z,2.40
2022-10-25T22:36:55.442Z,2.30
2022-10-25T22:39:22.171Z,2.27
2022-10-25T22:41:52.825Z,2.53
2022-10-25T22:44:19.675Z,2.37
2022-10-25T22:46:46.373Z,1.87
2022-10-25T22:49:13.126Z,2.60
2022-10-25T22:51:39.816Z,2.40
2022-10-25T22:54:07.320Z,2.43
2022-10-25T22:56:34.099Z,2.63
2022-10-25T22:59:03.187Z,2.60
2022-10-25T23:01:32.322Z,3.10
2022-10-25T23:04:00.483Z,3.93
2022-10-25T23:06:28.816Z,3.13
2022-10-25T23:08:56.746Z,2.87
2022-10-25T23:11:26.579Z,2.53
2022-10-25T23:13:53.450Z,2.50
2022-10-25T23:16:20.731Z,2.67
2022-10-25T23:18:47.579Z,3.00
2022-10-25T23:21:25.413Z,2.60
2022-10-25T23:23:53.863Z,2.57
2022-10-25T23:26:22.996Z,2.50
2022-10-25T23:28:50.414Z,2.80
2022-10-25T23:31:17.514Z,3.03
2022-10-25T23:33:44.535Z,2.73
2022-10-25T23:36:16.385Z,2.73
2022-10-25T23:38:43.831Z,2.70
2022-10-25T23:41:11.100Z,2.50
2022-10-25T23:43:38.825Z,2.27
2022-10-25T23:46:06.989Z,2.17
2022-10-25T23:48:34.317Z,2.40
2022-10-25T23:51:07.487Z,2.57
2022-10-25T23:53:34.882Z,2.90
2022-10-25T23:56:02.907Z,2.97
2022-10-25T23:58:29.926Z,2.80
